Aeroporto :
LOGIN :

Iscrizione | Disclaimer

   EN    FR    IT 

 










Sommario :    VFR   VFR Marginale   IFR   IFR Intensivo   IFR Molto Intensivo
Visibilità : 
Base nubi : 
>= 8 km
>= 3000ft
5 / 8 km
1000 / 3000 ft
1500m / 5 km
500 / 1000 ft
800 / 1500m
200 / 500 ft
< 800m
< 200 ft
Simboli :   Temporali  Nebbia  Neve Forte  Precipitazioni Forti  Vento > 20 kt
SIGMETs :   Varie  Temporali  Ghiacco  Turbolenza  Onda orograficha  Ceneri Vulcaniche






- Altitudine del aeroporto : 1106 ft


LFSO - Nancy / Ochey

ULTIMO METAR :
  • 281300Z AUTO 07005KT 030V110 9999 FEW028 BKN210 16/08 Q1022 NOSIG

METARs OBSOLETI :
  • 281230Z AUTO 11005KT 070V150 9999 FEW021 BKN210 16/09 Q1022 NOSIG
  • 281200Z AUTO 09003KT 030V160 CAVOK 16/10 Q1023 NOSIG
  • 281130Z AUTO 11005KT 080V140 CAVOK 15/10 Q1023 NOSIG
  • 281100Z AUTO 09004KT 050V130 9999 FEW014 OVC210 15/11 Q1023 NOSIG
  • 281030Z AUTO 12005KT 070V160 9999 BKN014 BKN220 14/11 Q1024 BECMG SCT020

TAF TAF LFSO
Valido dal 28 a 09 ore il 29 a 09 ore UTC


280800Z 2809/2909 12005KT 9999 OVC008
BECMG 2809/2811 SCT020
BECMG 2906/2908 21010KT BKN014 OVC020
TEMPO 2907/2909 4500 -RA



MetMap, La meteo Aeronautica in un colpo d'occhio ! - Copyright ORBIFLY Dicembre 2007 - Disclaimer

ORBIFLY MET'MAP TEAM :

Programmazione e sviluppo : Alexandra Zaïnal
Concezione : Baudouin d'Aumeries
Aiuto per la programmazione : Marc-Olivier Méhu
Supporto tecnico e logistico : Manuel Goepfert
Aiuto per la traduzione : Arnaldo La Scala

Contatto : metmap@orbifly.com




FONTI E CREDITI :

   NOAA